Pagrindinis puslapis
METAR-TAF:

METAR-TAF

Oro uostai :

Niurnbergas, Vokietija

platuma: 49-30N, ilguma: 011-03E, Aukštis: 318 m

Dabartinis oras

Ataskaita buvo paskelbta 37 minutes, ne 20:50 UTC
Vėjas 8 kt iš Pietų/Pietryčių
Temperatūra 7°C
Drėgmė 81%
Slėgis 1012 hPa
Matomumas 10 km arba daugiau
nėra debesų žemiau 1500 m ir nėra kamuolinių lietaus debesų

METAR: EDDN 272050Z 15008KT CAVOK 07/04 Q1012 NOSIG

Laikas: 22:27 (21:27 UTC)

Prognozė

Ataskaita buvo paskelbta 4 valandos ir 27 minutes, ne 17:00 UTC
Prognozė galioja nuo 27 metu 18 UTC su 28 metu 18 UTC
Vėjas 7 kt iš Pietryčių
Matomumas 10 km arba daugiau
nėra debesų žemiau 1500 m ir nėra kamuolinių lietaus debesų
Tapsmas
nuo 28 metu 10 UTC su 28 metu 12 UTC
Vėjas 7 kt iš Pietų/Pietvakarių
Tapsmas
nuo 28 metu 17 UTC su 28 metu 18 UTC
Vėjas 5 kt iš Pietų/Pietryčių

TAF: EDDN 271700Z 2718/2818 14007KT CAVOK BECMG 2810/2812 21007KT BECMG 2817/2818 15005KT

Orai ataskaitas ir orų prognozės (METAR, TAF).

turimą stotys yra geltonos ir raudonos taškus žemėlapyje.

Perkelti pele per norėdami pamatyti stoties vardą.

Tada spustelėkite, norėdami matyti oro stebėjimo ir prognozės.

Norėdami pakeisti žemėlapį: spustelėkite ant žalios mygtukų su juodo kryžiaus žemyn,; žalią mygtuką su brūkšneliu, jei norite nutolinti; arba žalių rodyklių gretimoms žemėlapius.


METAR-TAF: